Time;durP1;ratioP1;P1;durP2;ratioP2;P2;SDS_P1;SDS_P2;PMS_P1;PMS_P2;Temp;Humidity;BMP_temperature;BMP_pressure;BME280_temperature;BME280_humidity;BME280_pressure;Samples;Min_cycle;Max_cycle;Signal;HPM_P1;HPM_P2
2023/02/06 00:02:04;;;;;;;13.60;6.10;;;;;;;-1.20;100.00;102036.16;109322;1253;59523;-84
2023/02/06 00:04:53;;;;;;;11.80;5.50;;;;;;;-1.13;100.00;102034.00;109335;1253;72694;-83
2023/02/06 00:07:45;;;;;;;15.50;6.50;;;;;;;-1.16;100.00;102033.55;109301;1253;67883;-84
2023/02/06 00:10:35;;;;;;;18.50;6.30;;;;;;;-1.21;100.00;102031.83;109343;1252;73798;-83
2023/02/06 00:13:32;;;;;;;23.80;8.10;;;;;;;-1.27;100.00;102033.31;109300;1253;59078;-83
2023/02/06 00:16:40;;;;;;;15.40;6.90;;;;;;;-1.33;100.00;102038.42;109312;1253;61375;-83
2023/02/06 00:19:29;;;;;;;16.60;6.50;;;;;;;-1.31;100.00;102037.73;109245;1252;182662;-83
2023/02/06 00:22:18;;;;;;;11.80;5.00;;;;;;;-1.66;100.00;102043.02;109176;1253;69801;-84
2023/02/06 00:25:07;;;;;;;18.60;7.40;;;;;;;-1.73;100.00;102045.77;109373;1251;72690;-83
2023/02/06 00:27:56;;;;;;;13.60;5.40;;;;;;;-1.75;100.00;102045.88;109369;1253;59053;-84
2023/02/06 00:30:46;;;;;;;15.50;5.80;;;;;;;-1.77;100.00;102046.94;109153;1253;60913;-83
2023/02/06 00:33:35;;;;;;;18.80;7.70;;;;;;;-1.77;100.00;102046.77;109321;1252;74790;-84
2023/02/06 00:36:24;;;;;;;15.70;5.50;;;;;;;-1.79;100.00;102049.30;109208;1252;66207;-84
2023/02/06 00:39:12;;;;;;;11.30;4.80;;;;;;;-1.79;100.00;102047.36;109297;1253;71619;-83
2023/02/06 00:42:01;;;;;;;14.30;6.20;;;;;;;-1.76;100.00;102047.23;109311;1252;59769;-84
2023/02/06 00:44:50;;;;;;;13.20;5.80;;;;;;;-1.79;100.00;102048.93;109366;1253;60894;-84
2023/02/06 00:47:40;;;;;;;12.40;5.00;;;;;;;-1.77;100.00;102050.32;109295;1252;75725;-84
2023/02/06 00:50:30;;;;;;;23.20;7.10;;;;;;;-1.79;100.00;102052.18;109171;1253;70006;-82
2023/02/06 00:53:19;;;;;;;13.00;5.50;;;;;;;-1.81;100.00;102053.24;109240;1253;72562;-83
2023/02/06 00:56:08;;;;;;;17.00;6.80;;;;;;;-1.85;100.00;102049.44;109270;1254;59150;-83
2023/02/06 00:58:57;;;;;;;13.40;6.20;;;;;;;-1.89;100.00;102051.80;109371;1252;59210;-84
2023/02/06 01:01:46;;;;;;;15.80;6.30;;;;;;;-1.91;100.00;102053.58;109343;1252;72763;-84
2023/02/06 01:04:34;;;;;;;11.70;5.30;;;;;;;-1.96;100.00;102050.91;109335;1252;69674;-84
2023/02/06 01:07:24;;;;;;;12.80;5.30;;;;;;;-1.99;100.00;102054.73;109348;1252;70148;-82
2023/02/06 01:10:12;;;;;;;12.80;5.20;;;;;;;-1.97;100.00;102053.98;109207;1252;59880;-83
2023/02/06 01:13:01;;;;;;;12.70;5.90;;;;;;;-1.93;100.00;102053.60;109362;1251;59398;-83
2023/02/06 01:15:50;;;;;;;13.00;4.80;;;;;;;-1.98;100.00;102055.20;109304;1253;74258;-83
2023/02/06 01:18:39;;;;;;;13.10;5.40;;;;;;;-2.01;100.00;102058.18;109327;1251;69405;-83
2023/02/06 01:21:28;;;;;;;11.10;5.40;;;;;;;-2.05;100.00;102061.07;109330;1253;74319;-83
2023/02/06 01:24:18;;;;;;;11.90;5.10;;;;;;;-2.03;100.00;102064.52;109359;1252;61737;-83
2023/02/06 01:27:07;;;;;;;13.40;5.10;;;;;;;-2.03;100.00;102070.70;109349;1255;59466;-84
2023/02/06 01:29:56;;;;;;;9.00;4.60;;;;;;;-2.03;100.00;102068.11;109310;1253;73987;-83
2023/02/06 01:32:45;;;;;;;9.80;4.10;;;;;;;-2.02;100.00;102075.48;109296;1252;66453;-84
2023/02/06 01:35:36;;;;;;;8.90;4.20;;;;;;;-2.02;100.00;102073.48;109375;1252;70986;-83
2023/02/06 01:38:25;;;;;;;12.50;4.90;;;;;;;-2.01;100.00;102073.25;109251;1252;61696;-83
2023/02/06 01:41:14;;;;;;;11.00;4.90;;;;;;;-1.99;100.00;102071.16;109343;1252;59485;-84
2023/02/06 01:44:22;;;;;;;13.60;5.20;;;;;;;-1.96;100.00;102067.72;109302;1251;74861;-83
2023/02/06 01:47:12;;;;;;;11.00;5.00;;;;;;;-1.94;100.00;102068.20;109351;1252;67991;-82
2023/02/06 01:50:00;;;;;;;10.40;4.70;;;;;;;-1.93;100.00;102065.45;109354;1252;73031;-83
2023/02/06 01:52:50;;;;;;;13.70;5.30;;;;;;;-1.98;100.00;102065.36;109106;1251;62445;-83
2023/02/06 01:55:38;;;;;;;13.30;5.50;;;;;;;-1.99;100.00;102070.88;109308;1253;59694;-84
2023/02/06 01:58:38;;;;;;;13.60;5.70;;;;;;;-2.01;100.00;102068.36;109205;1255;74841;-83
2023/02/06 02:01:28;;;;;;;14.50;6.30;;;;;;;-2.05;100.00;102072.32;109140;1253;69713;-83
2023/02/06 02:04:18;;;;;;;13.40;6.30;;;;;;;-2.07;100.00;102081.20;109126;1253;71684;-83
2023/02/06 02:07:18;;;;;;;14.10;5.80;;;;;;;-2.09;100.00;102085.45;109118;1252;62371;-82
2023/02/06 02:10:07;;;;;;;15.00;6.00;;;;;;;-2.11;100.00;102081.58;109195;1253;59373;-83
2023/02/06 02:12:58;;;;;;;16.70;5.60;;;;;;;-2.10;100.00;102079.46;109343;1253;74248;-83
2023/02/06 02:15:59;;;;;;;16.00;6.20;;;;;;;-2.12;100.00;102082.95;109104;1253;69809;-83
2023/02/06 02:19:20;;;;;;;13.70;5.00;;;;;;;-2.12;100.00;102087.07;109191;1253;70520;-84
2023/02/06 02:22:09;;;;;;;12.60;4.90;;;;;;;-2.15;100.00;102088.38;109395;1252;59568;-84
2023/02/06 02:24:58;;;;;;;14.40;6.20;;;;;;;-2.17;100.00;102088.20;109324;1253;60414;-84
2023/02/06 02:28:08;;;;;;;16.00;5.30;;;;;;;-2.19;100.00;102090.70;109339;1253;75843;-84
2023/02/06 02:31:00;;;;;;;14.40;5.00;;;;;;;-2.19;100.00;102093.95;109165;1257;67611;-83
2023/02/06 02:34:19;;;;;;;16.50;6.20;;;;;;;-2.21;100.00;102093.55;109303;1253;72922;-83
2023/02/06 02:37:56;;;;;;;16.40;6.60;;;;;;;-2.18;100.00;102094.02;109153;1252;59091;-84
2023/02/06 02:41:14;;;;;;;17.30;6.60;;;;;;;-2.25;100.00;102091.02;109107;1252;59883;-83
2023/02/06 02:44:09;;;;;;;19.50;6.90;;;;;;;-2.26;100.00;102093.77;109353;1252;73448;-83
2023/02/06 02:47:00;;;;;;;18.50;7.40;;;;;;;-2.32;100.00;102096.70;109265;1253;66678;-83
2023/02/06 02:49:49;;;;;;;16.10;6.40;;;;;;;-2.35;100.00;102097.92;109083;1253;71666;-82
2023/02/06 02:52:38;;;;;;;15.80;5.90;;;;;;;-2.29;100.00;102099.64;109157;1253;60467;-83
2023/02/06 02:55:27;;;;;;;13.90;6.00;;;;;;;-2.32;100.00;102100.60;109288;1253;59062;-83
2023/02/06 02:58:20;;;;;;;16.50;6.30;;;;;;;-2.31;100.00;102100.73;109157;1253;73560;-83
2023/02/06 03:01:10;;;;;;;17.10;7.20;;;;;;;-2.33;100.00;102105.23;109404;1253;69202;-82
2023/02/06 03:04:06;;;;;;;13.30;6.10;;;;;;;-2.34;100.00;102104.16;109125;1253;72653;-83
2023/02/06 03:06:58;;;;;;;18.30;6.70;;;;;;;-2.33;100.00;102102.67;109082;1253;59095;-83
2023/02/06 03:10:03;;;;;;;14.50;5.40;;;;;;;-2.30;100.00;102097.42;109141;1253;59415;-84
2023/02/06 03:13:02;;;;;;;17.00;6.90;;;;;;;-2.27;100.00;102099.89;109077;1255;73400;-84
2023/02/06 03:15:56;;;;;;;12.90;5.20;;;;;;;-2.21;100.00;102093.73;109113;1253;67824;-83
2023/02/06 03:19:14;;;;;;;17.20;6.20;;;;;;;-2.20;100.00;102093.83;109205;1252;72770;-83
2023/02/06 03:22:03;;;;;;;13.00;5.40;;;;;;;-2.18;100.00;102095.60;109132;1253;60317;-82
2023/02/06 03:24:52;;;;;;;14.20;5.80;;;;;;;-2.17;100.00;102089.60;109154;1253;59028;-83
2023/02/06 03:27:40;;;;;;;14.20;5.80;;;;;;;-2.16;100.00;102088.30;109222;1253;74820;-84
2023/02/06 03:30:29;;;;;;;12.40;5.50;;;;;;;-2.16;100.00;102090.58;109339;1252;67814;-83
2023/02/06 03:33:21;;;;;;;13.50;6.00;;;;;;;-2.14;100.00;102089.83;109324;1253;73072;-83
2023/02/06 03:36:15;;;;;;;11.90;5.40;;;;;;;-2.13;100.00;102086.79;109108;1253;60119;-83
2023/02/06 03:39:04;;;;;;;15.30;6.50;;;;;;;-2.09;100.00;102087.08;109349;1253;60961;-83
2023/02/06 03:41:54;;;;;;;12.90;5.30;;;;;;;-2.08;100.00;102092.83;109205;1253;75070;-82
2023/02/06 03:44:45;;;;;;;13.00;5.90;;;;;;;-2.04;100.00;102089.58;109177;1253;68170;-83
2023/02/06 03:47:34;;;;;;;13.60;6.00;;;;;;;-2.03;100.00;102093.79;109381;1253;73022;-83
2023/02/06 03:50:23;;;;;;;12.60;5.40;;;;;;;-2.04;100.00;102094.36;109134;1253;59548;-83
2023/02/06 03:53:12;;;;;;;11.30;5.50;;;;;;;-1.98;100.00;102096.88;109171;1253;59186;-84
2023/02/06 03:56:06;;;;;;;12.70;5.40;;;;;;;-1.91;100.00;102101.67;109194;1258;72958;-83
2023/02/06 03:58:55;;;;;;;12.80;5.60;;;;;;;-1.83;100.00;102101.70;109123;1253;67794;-83
2023/02/06 04:01:46;;;;;;;10.70;5.10;;;;;;;-1.73;100.00;102099.77;109304;1253;73381;-83
2023/02/06 04:04:37;;;;;;;12.30;5.00;;;;;;;-1.70;100.00;102108.22;109140;1253;59040;-83
2023/02/06 04:07:28;;;;;;;11.40;5.20;;;;;;;-1.62;100.00;102110.47;109360;1251;58909;-83
2023/02/06 04:10:17;;;;;;;13.90;5.80;;;;;;;-1.57;100.00;102114.40;109337;1253;76365;-83
2023/02/06 04:13:07;;;;;;;10.10;4.80;;;;;;;-1.55;100.00;102113.16;109321;1257;67844;-83
2023/02/06 04:15:56;;;;;;;10.90;5.30;;;;;;;-1.54;100.00;102112.47;109364;1253;73817;-83
2023/02/06 04:18:45;;;;;;;8.80;4.70;;;;;;;-1.51;100.00;102114.46;109381;1252;60215;-84
2023/02/06 04:21:33;;;;;;;16.40;6.20;;;;;;;-1.48;100.00;102115.15;109161;1253;60413;-84
2023/02/06 04:24:22;;;;;;;17.30;5.10;;;;;;;-1.45;100.00;102125.48;109341;1253;74550;-83
2023/02/06 04:27:11;;;;;;;11.80;4.20;;;;;;;-1.50;100.00;102127.81;109417;1253;67483;-84
2023/02/06 04:30:00;;;;;;;10.70;5.20;;;;;;;-1.45;100.00;102134.78;109322;1253;73879;-83
2023/02/06 04:32:49;;;;;;;14.40;4.50;;;;;;;-1.37;100.00;102139.27;109348;1253;60292;-83
2023/02/06 04:35:38;;;;;;;12.90;5.00;;;;;;;-1.31;100.00;102143.65;109356;1253;61502;-82
2023/02/06 04:38:27;;;;;;;13.30;5.50;;;;;;;-1.31;100.00;102140.29;109409;1253;74528;-84
2023/02/06 04:41:16;;;;;;;9.10;4.50;;;;;;;-1.29;100.00;102147.98;109331;1253;69133;-83
2023/02/06 04:44:04;;;;;;;10.50;5.40;;;;;;;-1.26;100.00;102146.84;109278;1253;72618;-83
2023/02/06 04:46:53;;;;;;;12.40;5.20;;;;;;;-1.30;100.00;102149.64;109399;1253;61315;-83
2023/02/06 04:49:42;;;;;;;9.50;4.30;;;;;;;-1.32;100.00;102149.67;109379;1253;60234;-84
2023/02/06 04:52:31;;;;;;;9.70;4.70;;;;;;;-1.32;100.00;102147.73;109335;1253;74564;-82
2023/02/06 04:55:21;;;;;;;8.10;4.30;;;;;;;-1.34;100.00;102146.64;109364;1253;69950;-83
2023/02/06 04:58:10;;;;;;;10.60;4.90;;;;;;;-1.27;100.00;102154.92;109346;1251;72539;-82
2023/02/06 05:00:59;;;;;;;10.60;5.40;;;;;;;-1.28;100.00;102154.75;109351;1253;61240;-82
2023/02/06 05:03:48;;;;;;;10.20;5.30;;;;;;;-1.23;100.00;102154.04;109403;1253;59485;-83
2023/02/06 05:06:38;;;;;;;11.40;4.90;;;;;;;-1.20;100.00;102156.56;109143;1253;73882;-84
2023/02/06 05:09:27;;;;;;;10.60;5.00;;;;;;;-1.21;100.00;102155.19;109395;1252;69304;-84
2023/02/06 05:12:16;;;;;;;10.60;5.20;;;;;;;-1.19;100.00;102158.75;109339;1253;73432;-82
2023/02/06 05:15:05;;;;;;;8.90;4.90;;;;;;;-1.21;100.00;102159.11;109269;1252;61376;-83
2023/02/06 05:17:54;;;;;;;9.30;5.20;;;;;;;-1.21;100.00;102159.65;109323;1253;59352;-83
2023/02/06 05:20:43;;;;;;;8.10;3.60;;;;;;;-1.22;100.00;102163.49;109357;1253;72776;-83
2023/02/06 05:23:32;;;;;;;9.50;3.90;;;;;;;-1.20;100.00;102170.45;109350;1253;67512;-83
2023/02/06 05:26:21;;;;;;;9.70;4.20;;;;;;;-1.18;100.00;102169.63;109308;1253;73828;-83
2023/02/06 05:29:10;;;;;;;11.70;5.30;;;;;;;-1.17;100.00;102172.51;109323;1253;59629;-84
2023/02/06 05:31:58;;;;;;;10.00;4.50;;;;;;;-1.10;100.00;102175.70;109349;1253;59657;-84
2023/02/06 05:34:47;;;;;;;5.80;3.50;;;;;;;-1.07;100.00;102173.56;109410;1251;73668;-84
2023/02/06 05:37:37;;;;;;;10.40;5.10;;;;;;;-1.07;100.00;102176.98;109331;1253;67144;-83
2023/02/06 05:40:26;;;;;;;11.60;5.50;;;;;;;-1.05;100.00;102180.58;109354;1253;73790;-83
2023/02/06 05:43:15;;;;;;;7.10;3.60;;;;;;;-1.07;100.00;102182.55;109318;1253;60469;-83
2023/02/06 05:46:04;;;;;;;10.40;5.10;;;;;;;-1.10;100.00;102180.30;109208;1252;60231;-83
2023/02/06 05:48:53;;;;;;;9.90;5.70;;;;;;;-1.14;100.00;102184.52;109452;1251;73317;-84
2023/02/06 05:51:41;;;;;;;11.20;4.80;;;;;;;-1.16;100.00;102182.05;109360;1253;68247;-83
2023/02/06 05:54:30;;;;;;;8.20;4.10;;;;;;;-1.14;100.00;102183.95;109361;1253;71821;-83
2023/02/06 05:57:19;;;;;;;10.50;4.90;;;;;;;-1.13;100.00;102182.09;109406;1253;59753;-84
2023/02/06 06:00:08;;;;;;;13.40;4.70;;;;;;;-1.16;100.00;102186.89;109333;1250;61524;-84
2023/02/06 06:03:00;;;;;;;9.70;4.50;;;;;;;-1.21;100.00;102191.17;109320;1253;75903;-82
2023/02/06 06:05:49;;;;;;;7.70;3.90;;;;;;;-1.15;100.00;102188.24;109339;1252;66721;-83
2023/02/06 06:08:38;;;;;;;10.00;5.20;;;;;;;-1.12;100.00;102184.83;109244;1251;73861;-83
2023/02/06 06:11:28;;;;;;;13.00;5.60;;;;;;;-1.09;100.00;102186.48;109331;1253;60927;-84
2023/02/06 06:14:17;;;;;;;8.40;4.40;;;;;;;-1.07;100.00;102190.10;109191;1253;59988;-84
2023/02/06 06:17:06;;;;;;;9.40;5.10;;;;;;;-1.04;100.00;102190.65;109331;1252;72799;-83
2023/02/06 06:19:55;;;;;;;11.00;5.40;;;;;;;-1.02;100.00;102189.71;109323;1251;67222;-84
2023/02/06 06:22:44;;;;;;;8.20;4.40;;;;;;;-0.99;100.00;102192.42;109304;1253;72713;-83
2023/02/06 06:25:34;;;;;;;14.30;6.40;;;;;;;-0.96;100.00;102192.30;109309;1253;59083;-84
2023/02/06 06:28:23;;;;;;;9.40;4.40;;;;;;;-0.93;100.00;102195.17;109356;1251;61544;-84
2023/02/06 06:31:12;;;;;;;9.80;4.50;;;;;;;-0.89;100.00;102198.87;109394;1253;74896;-83
2023/02/06 06:34:00;;;;;;;11.40;4.90;;;;;;;-0.92;100.00;102201.48;109350;1251;67512;-83
2023/02/06 06:36:49;;;;;;;9.20;4.20;;;;;;;-0.88;100.00;102203.07;109300;1253;71784;-83
2023/02/06 06:39:38;;;;;;;9.40;4.10;;;;;;;-0.82;100.00;102201.62;109290;1253;61908;-83
2023/02/06 06:42:27;;;;;;;9.90;4.70;;;;;;;-0.75;100.00;102204.06;109333;1253;59039;-83
2023/02/06 06:45:16;;;;;;;7.70;4.30;;;;;;;-0.72;100.00;102202.48;109307;1252;74540;-85
2023/02/06 06:48:05;;;;;;;11.80;5.20;;;;;;;-0.67;100.00;102206.02;109336;1254;67569;-83
2023/02/06 06:50:53;;;;;;;8.90;4.40;;;;;;;-0.63;100.00;102203.30;109291;1253;73123;-84
2023/02/06 06:53:42;;;;;;;9.60;4.40;;;;;;;-0.56;100.00;102200.27;109304;1253;60431;-85
2023/02/06 06:56:31;;;;;;;9.70;4.20;;;;;;;-0.53;100.00;102205.16;109335;1252;60732;-84
2023/02/06 06:59:20;;;;;;;8.50;4.90;;;;;;;-0.48;100.00;102206.88;109236;1256;73785;-85
2023/02/06 07:02:09;;;;;;;8.10;4.00;;;;;;;-0.37;100.00;102214.39;109168;1255;69083;-84
2023/02/06 07:04:59;;;;;;;6.10;3.60;;;;;;;-0.31;100.00;102209.80;109156;1254;70556;-84
2023/02/06 07:07:48;;;;;;;5.00;3.30;;;;;;;-0.28;100.00;102202.09;109326;1256;61082;-83
2023/02/06 07:10:37;;;;;;;7.80;3.70;;;;;;;-0.22;100.00;102207.95;109320;1253;60337;-84
2023/02/06 07:13:27;;;;;;;6.70;3.70;;;;;;;-0.24;100.00;102208.82;109382;1252;75648;-83
2023/02/06 07:16:16;;;;;;;6.60;3.90;;;;;;;-0.23;100.00;102209.78;109314;1253;69541;-83
2023/02/06 07:19:06;;;;;;;7.30;3.60;;;;;;;-0.18;100.00;102203.91;109301;1253;72318;-84
2023/02/06 07:21:55;;;;;;;8.60;4.20;;;;;;;-0.10;100.00;102209.34;109270;1253;59666;-84
2023/02/06 07:24:43;;;;;;;8.40;4.30;;;;;;;-0.04;100.00;102213.98;109227;1255;59766;-84
2023/02/06 07:27:32;;;;;;;9.00;4.90;;;;;;;-0.01;100.00;102217.66;109346;1253;75176;-84
2023/02/06 07:30:21;;;;;;;8.70;4.30;;;;;;;0.03;100.00;102216.36;109365;1251;68951;-82
2023/02/06 07:33:10;;;;;;;6.80;4.30;;;;;;;0.04;100.00;102218.20;109319;1253;71966;-84
2023/02/06 07:35:58;;;;;;;8.30;4.10;;;;;;;0.08;100.00;102219.17;109290;1253;60593;-83
2023/02/06 07:38:50;;;;;;;6.80;3.10;;;;;;;0.08;100.00;102217.06;109265;1253;61660;-84
2023/02/06 07:41:39;;;;;;;9.00;4.40;;;;;;;0.08;100.00;102217.80;109302;1253;75402;-84
2023/02/06 07:44:28;;;;;;;7.30;4.20;;;;;;;0.06;100.00;102220.48;109352;1253;68668;-85
2023/02/06 07:47:16;;;;;;;8.50;3.80;;;;;;;-0.01;100.00;102223.74;109272;1253;71645;-82
2023/02/06 07:50:05;;;;;;;8.80;4.60;;;;;;;-0.02;100.00;102213.92;109275;1253;59279;-84
2023/02/06 07:52:54;;;;;;;9.10;4.10;;;;;;;0.05;100.00;102219.88;109323;1253;59553;-84
2023/02/06 07:55:43;;;;;;;9.20;4.80;;;;;;;0.03;100.00;102215.85;109369;1253;74764;-83
2023/02/06 07:58:32;;;;;;;8.00;3.90;;;;;;;0.04;100.00;102220.75;109230;1253;67123;-83
2023/02/06 08:01:21;;;;;;;8.90;4.60;;;;;;;0.04;100.00;102220.66;109257;1253;73174;-82
2023/02/06 08:04:10;;;;;;;6.50;4.10;;;;;;;-0.00;100.00;102212.35;109364;1256;61194;-84
2023/02/06 08:06:58;;;;;;;8.30;4.90;;;;;;;0.06;100.00;102214.27;109183;1254;60491;-83
2023/02/06 08:09:47;;;;;;;8.90;3.60;;;;;;;0.08;100.00;102206.48;109310;1253;72540;-83
2023/02/06 08:12:56;;;;;;;7.30;3.80;;;;;;;0.19;100.00;102205.40;109344;1253;69855;-83
2023/02/06 08:15:44;;;;;;;11.20;5.00;;;;;;;0.29;100.00;102205.27;109293;1253;71929;-83
2023/02/06 08:18:36;;;;;;;10.30;4.40;;;;;;;0.36;100.00;102204.66;109309;1254;58964;-84
2023/02/06 08:21:25;;;;;;;5.50;3.70;;;;;;;0.50;100.00;102198.09;109307;1252;59101;-84
2023/02/06 08:24:14;;;;;;;8.10;3.80;;;;;;;0.57;100.00;102200.70;109196;1252;75839;-83
2023/02/06 08:27:02;;;;;;;7.90;3.20;;;;;;;0.59;100.00;102202.45;109291;1255;68643;-84
2023/02/06 08:29:52;;;;;;;9.50;4.50;;;;;;;0.58;100.00;102201.88;109303;1254;72561;-83
2023/02/06 08:32:41;;;;;;;5.80;3.40;;;;;;;0.54;100.00;102200.54;109184;1254;59469;-83
2023/02/06 08:35:30;;;;;;;7.30;3.50;;;;;;;0.57;100.00;102202.15;109356;1253;59476;-84
2023/02/06 08:38:19;;;;;;;10.80;5.30;;;;;;;0.62;100.00;102205.38;109341;1253;74843;-85
2023/02/06 08:41:24;;;;;;;6.90;3.40;;;;;;;0.61;100.00;102204.40;109218;1257;69139;-84
2023/02/06 08:44:15;;;;;;;8.60;3.60;;;;;;;0.63;100.00;102208.70;109139;1255;72995;-83
2023/02/06 08:47:03;;;;;;;9.00;4.80;;;;;;;0.54;100.00;102207.51;109287;1254;59749;-83
2023/02/06 08:49:58;;;;;;;6.70;3.50;;;;;;;0.51;100.00;102208.02;109298;1253;60260;-85
2023/02/06 08:52:50;;;;;;;;;;;;;;;0.50;100.00;102217.25;109258;1254;73677;-83
2023/02/06 08:55:40;;;;;;;4.20;2.80;;;;;;;0.47;100.00;102221.20;109286;1253;67488;-84
2023/02/06 08:58:29;;;;;;;6.80;4.40;;;;;;;0.40;100.00;102224.08;109319;1254;73268;-84
2023/02/06 09:01:18;;;;;;;9.20;4.20;;;;;;;0.38;100.00;102223.89;109246;1254;60423;-83
2023/02/06 09:04:08;;;;;;;8.90;4.50;;;;;;;0.33;100.00;102227.92;109142;1254;61105;-83
2023/02/06 09:06:57;;;;;;;9.20;4.90;;;;;;;0.32;100.00;102224.27;109300;1254;73797;-83
2023/02/06 09:09:45;;;;;;;6.50;3.20;;;;;;;0.26;100.00;102226.41;109264;1254;69048;-84
2023/02/06 09:12:34;;;;;;;5.70;3.60;;;;;;;0.16;100.00;102222.94;109341;1252;71631;-82
2023/02/06 09:15:23;;;;;;;14.20;5.60;;;;;;;0.05;100.00;102222.20;109346;1251;61183;-83
2023/02/06 09:18:12;;;;;;;12.60;5.20;;;;;;;-0.03;100.00;102228.10;109339;1252;61689;-83
2023/02/06 09:21:14;;;;;;;9.40;5.00;;;;;;;-0.08;100.00;102225.91;109275;1253;74657;-83
2023/02/06 09:24:05;;;;;;;12.10;5.10;;;;;;;-0.10;100.00;102225.57;109285;1254;68688;-83
2023/02/06 09:26:54;;;;;;;8.90;4.00;;;;;;;-0.03;100.00;102225.98;109284;1252;73342;-84
2023/02/06 09:29:49;;;;;;;9.80;4.20;;;;;;;0.15;100.00;102216.13;109350;1251;60303;-83
2023/02/06 09:32:38;;;;;;;12.00;4.70;;;;;;;0.32;100.00;102216.56;109235;1256;59235;-83
2023/02/06 09:35:26;;;;;;;13.20;4.90;;;;;;;0.52;100.00;102218.84;109375;1251;74538;-83
2023/02/06 09:38:15;;;;;;;9.20;4.30;;;;;;;0.66;100.00;102214.75;109306;1251;68477;-84
2023/02/06 09:41:09;;;;;;;13.90;5.00;;;;;;;0.72;100.00;102213.56;109229;1253;71540;-84
2023/02/06 09:44:11;;;;;;;7.50;3.20;;;;;;;0.72;100.00;102209.06;109152;1252;59358;-84
2023/02/06 09:47:00;;;;;;;6.90;3.60;;;;;;;0.78;100.00;102210.05;109243;1253;59367;-84
2023/02/06 09:49:52;;;;;;;9.10;4.10;;;;;;;0.80;100.00;102203.39;109303;1254;73882;-84
2023/02/06 09:53:27;;;;;;;10.00;4.70;;;;;;;0.78;100.00;102205.05;109216;1253;66754;-84
2023/02/06 09:56:24;;;;;;;6.80;3.50;;;;;;;0.81;100.00;102200.56;109226;1254;73486;-84
2023/02/06 09:59:21;;;;;;;10.40;4.90;;;;;;;0.82;100.00;102201.16;109139;1253;60034;-84
2023/02/06 10:02:18;;;;;;;11.80;5.80;;;;;;;0.81;100.00;102195.45;109205;1254;61732;-85
2023/02/06 10:05:29;;;;;;;8.60;3.60;;;;;;;0.85;100.00;102196.64;109246;1254;72597;-85
2023/02/06 10:08:24;;;;;;;10.20;4.90;;;;;;;0.88;100.00;102193.88;109184;1254;66541;-83
2023/02/06 10:11:34;;;;;;;10.40;5.00;;;;;;;0.92;100.00;102193.80;109319;1253;72913;-83
2023/02/06 10:14:27;;;;;;;9.00;4.60;;;;;;;0.95;100.00;102192.55;109195;1252;59429;-84
2023/02/06 10:17:22;;;;;;;7.00;3.80;;;;;;;0.94;100.00;102193.87;109251;1253;60589;-84
2023/02/06 10:20:16;;;;;;;9.50;4.00;;;;;;;0.88;100.00;102191.73;109163;1254;75879;-84
2023/02/06 10:23:14;;;;;;;10.30;4.60;;;;;;;0.82;100.00;102196.98;109311;1254;70162;-85
2023/02/06 10:26:06;;;;;;;10.00;4.70;;;;;;;0.78;100.00;102192.19;109325;1253;72890;-84
2023/02/06 10:28:57;;;;;;;7.80;4.00;;;;;;;0.75;100.00;102190.48;109166;1253;59540;-85
2023/02/06 10:32:05;;;;;;;8.10;4.10;;;;;;;0.72;100.00;102189.65;109221;1251;59707;-85
2023/02/06 10:35:00;;;;;;;6.60;3.80;;;;;;;0.78;100.00;102189.36;109337;1251;74817;-85
2023/02/06 10:38:10;;;;;;;6.90;3.70;;;;;;;0.83;100.00;102182.88;109325;1253;69790;-85
2023/02/06 10:41:22;;;;;;;7.70;4.20;;;;;;;0.86;100.00;102184.37;109320;1254;71674;-86
2023/02/06 10:44:24;;;;;;;8.30;4.20;;;;;;;0.84;100.00;102187.02;109156;1254;59748;-84
2023/02/06 10:47:42;;;;;;;5.30;3.00;;;;;;;0.83;100.00;102186.86;109167;1257;59089;-84
2023/02/06 10:50:43;;;;;;;4.00;2.80;;;;;;;0.83;100.00;102180.20;109270;1254;74363;-84
2023/02/06 10:53:38;;;;;;;8.80;4.60;;;;;;;0.87;100.00;102183.75;109153;1254;66443;-85
2023/02/06 10:56:29;;;;;;;13.20;6.00;;;;;;;0.92;100.00;102185.33;109233;1253;71580;-84
2023/02/06 10:59:31;;;;;;;16.80;7.90;;;;;;;0.94;100.00;102180.63;109093;1254;59785;-84
2023/02/06 11:02:31;;;;;;;11.10;5.90;;;;;;;0.94;100.00;102181.02;109362;1253;62272;-83
2023/02/06 11:05:28;;;;;;;8.20;3.80;;;;;;;0.92;100.00;102183.08;109224;1253;73612;-83
2023/02/06 11:08:37;;;;;;;8.50;4.10;;;;;;;0.96;100.00;102181.71;109201;1253;69248;-85
2023/02/06 11:11:29;;;;;;;10.40;4.80;;;;;;;0.93;100.00;102180.24;109181;1253;73829;-85
2023/02/06 11:14:21;;;;;;;9.50;4.40;;;;;;;0.90;100.00;102181.23;109257;1253;59011;-84
2023/02/06 11:17:14;;;;;;;9.60;5.00;;;;;;;0.84;100.00;102178.08;109281;1253;59096;-83
2023/02/06 11:20:24;;;;;;;15.40;6.20;;;;;;;0.91;100.00;102181.33;109317;1253;75444;-85
2023/02/06 11:23:19;;;;;;;14.20;6.10;;;;;;;0.87;100.00;102177.97;109125;1253;69255;-83
2023/02/06 11:26:16;;;;;;;9.70;5.00;;;;;;;0.85;100.00;102179.95;109241;1253;73176;-84
2023/02/06 11:29:21;;;;;;;10.90;5.40;;;;;;;0.83;100.00;102183.42;109171;1253;59161;-84
2023/02/06 11:32:26;;;;;;;10.00;4.80;;;;;;;0.78;100.00;102184.52;109268;1257;60222;-85
2023/02/06 11:35:36;;;;;;;7.40;4.00;;;;;;;0.77;100.00;102176.95;109168;1253;76032;-85
2023/02/06 11:38:28;;;;;;;10.60;5.50;;;;;;;0.72;100.00;102179.65;109279;1251;69130;-84
2023/02/06 11:41:17;;;;;;;11.00;5.50;;;;;;;0.75;100.00;102186.52;109231;1253;72914;-83
2023/02/06 11:44:10;;;;;;;10.00;4.90;;;;;;;0.82;100.00;102187.33;109346;1253;59100;-85
2023/02/06 11:47:36;;;;;;;11.90;4.70;;;;;;;0.84;100.00;102181.02;109160;1253;60500;-84
2023/02/06 11:50:32;;;;;;;9.20;4.20;;;;;;;0.83;100.00;102190.77;109204;1251;72902;-84
2023/02/06 11:53:22;;;;;;;11.00;4.50;;;;;;;0.81;100.00;102184.75;109336;1251;69171;-84
2023/02/06 11:56:16;;;;;;;8.40;4.80;;;;;;;0.84;100.00;102183.11;109296;1253;71931;-83
2023/02/06 11:59:18;;;;;;;8.30;4.50;;;;;;;0.80;100.00;102178.56;109300;1253;59009;-84
2023/02/06 12:02:25;;;;;;;10.20;5.10;;;;;;;0.78;100.00;102179.52;109260;1253;61090;-84
2023/02/06 12:05:16;;;;;;;10.80;5.10;;;;;;;0.79;100.00;102174.90;109052;1253;72980;-84
2023/02/06 12:08:15;;;;;;;7.80;4.00;;;;;;;0.82;100.00;102181.78;109107;1254;68640;-84
2023/02/06 12:11:08;;;;;;;7.10;3.90;;;;;;;0.83;100.00;102183.39;109195;1253;72926;-85
2023/02/06 12:14:10;;;;;;;9.80;4.30;;;;;;;0.88;100.00;102181.09;109079;1251;59351;-83
2023/02/06 12:17:00;;;;;;;8.70;4.90;;;;;;;0.98;100.00;102186.95;109204;1253;60802;-84
2023/02/06 12:19:59;;;;;;;7.00;4.60;;;;;;;1.01;100.00;102189.73;109052;1253;161810;-84
2023/02/06 12:22:56;;;;;;;11.10;5.30;;;;;;;1.01;100.00;102193.10;109189;1253;68766;-85
2023/02/06 12:25:48;;;;;;;8.00;4.20;;;;;;;0.99;100.00;102190.13;109092;1253;70158;-83
2023/02/06 12:28:59;;;;;;;9.80;4.50;;;;;;;0.95;100.00;102193.05;109341;1252;59027;-84
2023/02/06 12:32:21;;;;;;;7.50;3.60;;;;;;;0.94;100.00;102193.35;109266;1251;60269;-84
2023/02/06 12:35:30;;;;;;;9.90;4.40;;;;;;;0.88;100.00;102187.63;109152;1253;72436;-83
2023/02/06 12:38:40;;;;;;;6.70;3.70;;;;;;;0.83;100.00;102193.27;109305;1253;69335;-84
2023/02/06 12:41:50;;;;;;;7.60;3.50;;;;;;;0.91;100.00;102191.59;109082;1254;73207;-84
2023/02/06 12:44:51;;;;;;;8.00;4.10;;;;;;;0.97;100.00;102198.40;109364;1251;60024;-84
2023/02/06 12:47:52;;;;;;;9.20;4.20;;;;;;;0.99;100.00;102202.95;109345;1253;60024;-85
2023/02/06 12:51:28;;;;;;;7.10;4.00;;;;;;;0.99;100.00;102198.77;109280;1253;74664;-84
2023/02/06 12:54:29;;;;;;;8.10;4.20;;;;;;;1.03;100.00;102199.11;108672;1260;69101;-84
2023/02/06 12:57:22;;;;;;;6.70;3.30;;;;;;;1.04;100.00;102201.23;109234;1253;75129;-83
2023/02/06 13:00:37;;;;;;;9.10;4.10;;;;;;;0.94;100.00;102204.84;109083;1253;59777;-86
2023/02/06 13:03:39;;;;;;;8.20;3.60;;;;;;;0.91;100.00;102204.13;109403;1252;60264;-83
2023/02/06 13:06:45;;;;;;;8.10;3.70;;;;;;;0.95;100.00;102203.45;109187;1253;74779;-83
2023/02/06 13:09:45;;;;;;;6.60;3.30;;;;;;;0.93;100.00;102202.52;109203;1251;69896;-84